Time;durP1;ratioP1;P1;durP2;ratioP2;P2;SDS_P1;SDS_P2;PMS_P1;PMS_P2;Temp;Humidity;BMP_temperature;BMP_pressure;BME280_temperature;BME280_humidity;BME280_pressure;Samples;Min_cycle;Max_cycle;Signal;HPM_P1;HPM_P2
2021/01/11 00:01:48;;;;;;;28.20;12.13;;;0.70;98.30;;;;;;5098793;28;20039;-72
2021/01/11 00:04:14;;;;;;;91.35;14.25;;;0.60;98.00;;;;;;5095588;28;20514;-72
2021/01/11 00:06:42;;;;;;;27.95;12.13;;;0.80;97.90;;;;;;5091704;28;20193;-72
2021/01/11 00:09:09;;;;;;;29.80;12.93;;;0.70;97.60;;;;;;5099071;28;21124;-72
2021/01/11 00:11:35;;;;;;;24.08;12.05;;;0.40;97.90;;;;;;5090783;28;20051;-72
2021/01/11 00:14:03;;;;;;;29.83;11.85;;;0.30;97.90;;;;;;5093003;28;20577;-72
2021/01/11 00:16:30;;;;;;;25.98;11.80;;;0.50;98.30;;;;;;5092032;28;20052;-72
2021/01/11 00:18:57;;;;;;;28.90;12.13;;;0.50;98.50;;;;;;5094027;28;20098;-72
2021/01/11 00:21:24;;;;;;;26.73;10.90;;;0.60;98.20;;;;;;5091884;28;20100;-72
2021/01/11 00:23:51;;;;;;;24.05;11.63;;;0.90;97.70;;;;;;5094781;28;20090;-71
2021/01/11 00:26:17;;;;;;;29.85;11.98;;;0.50;97.30;;;;;;5091466;28;20075;-71
2021/01/11 00:28:43;;;;;;;30.13;11.70;;;0.40;98.10;;;;;;5090186;28;20483;-71
2021/01/11 00:31:11;;;;;;;26.20;12.15;;;1.00;97.20;;;;;;5094773;28;20056;-71
2021/01/11 00:33:38;;;;;;;29.42;13.02;;;1.00;97.40;;;;;;5098897;28;20104;-71
2021/01/11 00:36:05;;;;;;;30.20;13.05;;;0.60;97.40;;;;;;5091185;28;20189;-72
2021/01/11 00:38:31;;;;;;;25.58;12.65;;;0.50;98.10;;;;;;5090103;28;20086;-72
2021/01/11 00:40:58;;;;;;;24.77;11.60;;;0.70;98.30;;;;;;5093036;28;20056;-72
2021/01/11 00:43:24;;;;;;;26.83;11.88;;;0.30;97.80;;;;;;5092095;28;20044;-71
2021/01/11 00:45:50;;;;;;;25.13;11.20;;;0.50;97.90;;;;;;5090529;28;20101;-72
2021/01/11 00:48:17;;;;;;;24.58;10.57;;;0.10;97.80;;;;;;5089031;28;20056;-72
2021/01/11 00:50:43;;;;;;;22.67;10.38;;;0.50;98.10;;;;;;5101531;28;20100;-73
2021/01/11 00:53:09;;;;;;;27.55;10.60;;;0.30;98.00;;;;;;5099841;28;20117;-72
2021/01/11 00:55:36;;;;;;;28.20;11.63;;;0.40;98.50;;;;;;5102632;28;20040;-71
2021/01/11 00:58:02;;;;;;;24.05;10.98;;;0.20;98.10;;;;;;5104819;28;20091;-72
2021/01/11 01:00:29;;;;;;;22.98;10.77;;;0.50;97.90;;;;;;5103207;28;20075;-72
2021/01/11 01:02:55;;;;;;;26.67;12.48;;;0.40;98.10;;;;;;5104644;28;20076;-71
2021/01/11 01:05:22;;;;;;;28.50;12.13;;;0.30;98.20;;;;;;5102395;28;20040;-71
2021/01/11 01:07:48;;;;;;;24.50;12.30;;;0.20;97.50;;;;;;5107266;28;20047;-71
2021/01/11 01:10:14;;;;;;;30.02;12.57;;;0.50;97.70;;;;;;5102775;28;20113;-71
2021/01/11 01:12:41;;;;;;;29.83;12.02;;;0.10;97.50;;;;;;5108436;28;20131;-71
2021/01/11 01:15:09;;;;;;;28.65;12.30;;;0.10;98.20;;;;;;5102702;28;20097;-76
2021/01/11 01:17:38;;;;;;;25.33;10.10;;;0.20;98.00;;;;;;5100524;28;23016;-71
2021/01/11 01:20:07;;;;;;;21.40;9.88;;;0.00;97.90;;;;;;5105813;28;20043;-71
2021/01/11 01:22:33;;;;;;;23.95;10.70;;;0.00;98.20;;;;;;5105488;28;20157;-72
2021/01/11 01:24:59;;;;;;;27.58;11.70;;;-0.10;97.70;;;;;;5112412;28;20093;-71
2021/01/11 01:27:26;;;;;;;26.30;10.88;;;-0.20;97.80;;;;;;5108756;28;20089;-73
2021/01/11 01:29:52;;;;;;;30.27;11.77;;;0.00;98.20;;;;;;5104868;28;20073;-72
2021/01/11 01:32:20;;;;;;;22.58;10.95;;;-0.10;98.30;;;;;;5109076;28;20064;-73
2021/01/11 01:34:46;;;;;;;26.98;12.05;;;0.10;98.10;;;;;;5109610;28;20067;-73
2021/01/11 01:37:12;;;;;;;25.38;11.00;;;0.10;97.50;;;;;;5107843;27;20067;-71
2021/01/11 01:39:39;;;;;;;25.73;10.85;;;0.00;97.40;;;;;;5103306;28;20093;-72
2021/01/11 01:42:05;;;;;;;21.48;10.90;;;0.00;98.30;;;;;;5099090;28;20039;-72
2021/01/11 01:44:31;;;;;;;23.65;10.50;;;0.10;97.60;;;;;;5107714;28;20116;-72
2021/01/11 01:46:58;;;;;;;25.70;10.38;;;-0.10;97.70;;;;;;5107348;28;20057;-71
2021/01/11 01:49:25;;;;;;;26.23;10.50;;;-0.20;97.60;;;;;;5104251;28;20475;-72
2021/01/11 01:51:52;;;;;;;24.75;10.73;;;-0.30;97.80;;;;;;5103065;28;20197;-71
2021/01/11 01:54:19;;;;;;;17.55;9.93;;;-0.20;98.20;;;;;;5099613;28;20490;-72
2021/01/11 01:56:46;;;;;;;21.48;9.05;;;0.00;97.80;;;;;;5109233;27;20109;-72
2021/01/11 01:59:14;;;;;;;21.30;9.70;;;0.20;97.50;;;;;;5098964;28;20130;-71
2021/01/11 02:01:40;;;;;;;23.30;11.30;;;0.10;97.80;;;;;;5113075;28;20067;-71
2021/01/11 02:04:07;;;;;;;22.63;10.88;;;-0.30;98.10;;;;;;5111215;28;20047;-72
2021/01/11 02:06:36;;;;;;;22.60;10.85;;;-0.70;98.70;;;;;;5099903;27;20063;-72
2021/01/11 02:09:15;;;;;;;23.73;10.95;;;-0.60;99.30;;;;;;5109889;28;20085;-71
2021/01/11 02:11:49;;;;;;;24.13;10.88;;;-0.40;99.20;;;;;;5107578;28;20079;-72
2021/01/11 02:14:54;;;;;;;25.35;11.80;;;-0.50;99.40;;;;;;5112350;28;20479;-72
2021/01/11 02:17:33;;;;;;;25.63;11.38;;;-0.80;99.90;;;;;;5112292;28;20048;-71
2021/01/11 02:20:12;;;;;;;26.33;10.40;;;-0.80;99.90;;;;;;5106734;28;20129;-73
2021/01/11 02:23:25;;;;;;;27.33;11.38;;;-0.70;99.90;;;;;;5098889;28;20497;-73
2021/01/11 02:26:09;;;;;;;23.80;10.30;;;-0.60;99.90;;;;;;5109311;28;20116;-73
2021/01/11 02:28:58;;;;;;;21.52;10.68;;;-0.40;99.90;;;;;;5108355;28;20088;-73
2021/01/11 02:31:27;;;;;;;23.75;10.30;;;0.10;99.90;;;;;;5108334;28;20130;-73
2021/01/11 02:33:56;;;;;;;26.02;9.65;;;0.00;99.90;;;;;;5110267;28;20059;-72
2021/01/11 02:36:23;;;;;;;25.77;10.93;;;-0.20;99.90;;;;;;5107148;28;20043;-72
2021/01/11 02:38:50;;;;;;;25.63;10.75;;;0.30;99.90;;;;;;5107070;27;20089;-73
2021/01/11 02:41:17;;;;;;;24.48;10.10;;;0.30;99.50;;;;;;5109926;28;20060;-73
2021/01/11 02:43:43;;;;;;;21.92;10.10;;;0.40;99.20;;;;;;5109468;28;20075;-71
2021/01/11 02:46:10;;;;;;;27.08;10.98;;;0.00;98.90;;;;;;5111635;28;20097;-72
2021/01/11 02:48:56;;;;;;;20.95;9.82;;;0.10;99.10;;;;;;5106615;28;20414;-72
2021/01/11 02:51:37;;;;;;;24.92;10.75;;;0.10;99.10;;;;;;5108547;27;20047;-72
2021/01/11 02:54:16;;;;;;;22.13;10.73;;;0.10;99.40;;;;;;5107925;28;20437;-72
2021/01/11 02:56:44;;;;;;;22.90;10.88;;;-0.40;99.50;;;;;;5111145;28;20052;-72
2021/01/11 02:59:16;;;;;;;23.08;10.35;;;-0.30;99.80;;;;;;5110523;28;20071;-72
2021/01/11 03:01:56;;;;;;;22.52;10.43;;;-0.40;99.40;;;;;;5125724;27;20533;-73
2021/01/11 03:04:26;;;;;;;24.33;9.93;;;-0.20;99.40;;;;;;5106649;28;20044;-72
2021/01/11 03:07:04;;;;;;;25.50;10.27;;;-0.40;99.40;;;;;;5108438;28;20396;-72
2021/01/11 03:09:31;;;;;;;24.05;10.45;;;0.00;99.30;;;;;;5104449;28;20051;-73
2021/01/11 03:11:59;;;;;;;22.33;10.27;;;-0.20;99.20;;;;;;5109030;28;20055;-72
2021/01/11 03:14:25;;;;;;;22.25;9.98;;;-0.40;99.50;;;;;;5105155;28;20073;-73
2021/01/11 03:16:52;;;;;;;24.42;9.85;;;-0.40;99.80;;;;;;5104720;28;20044;-73
2021/01/11 03:19:19;;;;;;;21.30;10.10;;;0.00;99.70;;;;;;5109354;28;20087;-73
2021/01/11 03:21:46;;;;;;;23.75;10.85;;;0.30;99.00;;;;;;5106656;28;20597;-74
2021/01/11 03:24:16;;;;;;;26.05;10.90;;;-0.20;98.80;;;;;;5112479;28;20039;-72
2021/01/11 03:26:43;;;;;;;24.08;11.35;;;-0.30;99.80;;;;;;5108352;28;20067;-71
2021/01/11 03:29:11;;;;;;;23.30;11.13;;;-0.70;99.90;;;;;;5107943;28;20048;-72
2021/01/11 03:31:38;;;;;;;30.40;11.88;;;-0.50;99.90;;;;;;5112328;28;20093;-72
2021/01/11 03:34:06;;;;;;;25.27;10.65;;;-0.50;99.90;;;;;;5107807;28;20482;-71
2021/01/11 03:36:32;;;;;;;29.10;11.18;;;-0.60;99.90;;;;;;5111216;28;20092;-72
2021/01/11 03:38:59;;;;;;;23.95;10.98;;;-0.20;99.90;;;;;;5110802;28;20040;-72
2021/01/11 03:41:25;;;;;;;27.35;11.25;;;-0.40;99.90;;;;;;5106782;28;20050;-72
2021/01/11 03:43:52;;;;;;;22.42;10.75;;;-0.40;99.90;;;;;;5111240;28;20076;-72
2021/01/11 03:46:18;;;;;;;27.85;12.32;;;-0.40;99.90;;;;;;5106755;28;20503;-71
2021/01/11 03:48:45;;;;;;;24.58;11.07;;;-0.10;99.90;;;;;;5104923;28;20036;-71
2021/01/11 03:51:13;;;;;;;23.20;10.90;;;-0.40;99.90;;;;;;5111610;28;20067;-71
2021/01/11 03:53:43;;;;;;;24.20;11.50;;;-0.20;99.90;;;;;;5107836;28;20043;-72
2021/01/11 03:56:10;;;;;;;27.55;11.25;;;-0.40;99.90;;;;;;5102904;28;20048;-71
2021/01/11 03:58:36;;;;;;;28.55;11.63;;;-0.20;99.90;;;;;;5108639;28;20055;-72
2021/01/11 04:01:03;;;;;;;20.90;11.45;;;0.10;99.80;;;;;;5098337;28;20047;-72
2021/01/11 04:03:30;;;;;;;24.20;12.07;;;0.00;99.90;;;;;;5110146;28;20051;-72
2021/01/11 04:05:58;;;;;;;31.88;12.80;;;-0.30;99.90;;;;;;5105432;28;20063;-71
2021/01/11 04:08:24;;;;;;;34.42;12.95;;;-0.10;99.90;;;;;;5106538;28;20048;-72
2021/01/11 04:10:52;;;;;;;25.98;12.30;;;0.10;99.90;;;;;;5106058;28;20471;-72
2021/01/11 04:13:19;;;;;;;29.73;12.30;;;0.10;99.90;;;;;;5105836;28;20138;-72
2021/01/11 04:15:46;;;;;;;27.85;12.88;;;0.10;99.90;;;;;;5108891;28;20127;-73
2021/01/11 04:18:13;;;;;;;26.80;11.82;;;-0.20;99.90;;;;;;5108902;28;20039;-72
2021/01/11 04:20:39;;;;;;;26.75;12.10;;;0.10;99.90;;;;;;5103176;28;20101;-73
2021/01/11 04:23:06;;;;;;;28.63;11.90;;;0.00;99.90;;;;;;5107756;28;20463;-73
2021/01/11 04:25:33;;;;;;;26.70;11.80;;;0.30;99.90;;;;;;5106752;28;20539;-73
2021/01/11 04:28:03;;;;;;;25.60;11.35;;;-0.20;99.80;;;;;;5107869;28;20124;-73
2021/01/11 04:30:29;;;;;;;24.40;11.35;;;0.10;99.90;;;;;;5107797;28;20079;-74
2021/01/11 04:32:57;;;;;;;22.50;11.15;;;0.30;99.90;;;;;;5106560;28;20047;-74
2021/01/11 04:35:26;;;;;;;32.13;11.82;;;0.00;99.90;;;;;;5107109;28;20048;-74
2021/01/11 04:37:52;;;;;;;25.13;11.57;;;-0.40;99.90;;;;;;5110794;28;20085;-73
2021/01/11 04:40:19;;;;;;;30.80;12.00;;;-0.20;99.90;;;;;;5105950;28;20104;-73
2021/01/11 04:43:00;;;;;;;24.60;11.38;;;-0.20;99.60;;;;;;5107449;28;20055;-73
2021/01/11 04:45:26;;;;;;;24.40;10.77;;;-0.30;99.90;;;;;;5109708;28;20096;-73
2021/01/11 04:47:56;;;;;;;23.48;10.65;;;-0.20;99.90;;;;;;5105696;28;20083;-73
2021/01/11 04:50:24;;;;;;;24.10;10.90;;;-0.30;99.50;;;;;;5109276;28;20055;-74
2021/01/11 04:52:51;;;;;;;26.52;11.75;;;-0.40;99.00;;;;;;5107963;28;20122;-75
2021/01/11 04:55:18;;;;;;;19.98;10.52;;;-0.30;99.40;;;;;;5106696;28;20160;-73
2021/01/11 04:57:58;;;;;;;30.92;11.40;;;-0.20;99.50;;;;;;5108242;28;20093;-73
2021/01/11 05:00:29;;;;;;;23.65;11.32;;;-0.10;99.70;;;;;;5107596;28;20051;-73
2021/01/11 05:02:59;;;;;;;34.47;11.43;;;-0.30;99.40;;;;;;5111342;28;20048;-73
2021/01/11 05:05:27;;;;;;;29.25;12.45;;;-0.40;99.70;;;;;;5112280;28;20427;-74
2021/01/11 05:07:54;;;;;;;24.05;11.20;;;-0.60;99.50;;;;;;5109613;28;20044;-74
2021/01/11 05:10:26;;;;;;;32.38;13.10;;;-0.20;99.60;;;;;;5099659;28;20079;-73
2021/01/11 05:13:01;;;;;;;41.65;14.35;;;-0.20;99.10;;;;;;5114921;28;20134;-72
2021/01/11 05:15:30;;;;;;;33.13;12.85;;;-0.30;99.30;;;;;;5108852;28;20051;-72
2021/01/11 05:17:57;;;;;;;47.15;15.38;;;-0.10;99.50;;;;;;5111010;28;20051;-72
2021/01/11 05:20:28;;;;;;;39.25;14.60;;;-0.20;99.70;;;;;;5112715;28;20122;-71
2021/01/11 05:22:57;;;;;;;32.72;13.32;;;-0.30;99.90;;;;;;5109347;28;20044;-71
2021/01/11 05:25:27;;;;;;;24.55;11.25;;;-0.40;99.90;;;;;;5110848;28;20517;-72
2021/01/11 05:28:05;;;;;;;;;;;-0.40;99.90;;;;;;5111674;28;20507;-72
2021/01/11 05:30:34;;;;;;;25.52;10.57;;;-0.40;99.90;;;;;;5110697;28;19967;-73
2021/01/11 05:33:00;;;;;;;29.05;11.27;;;-0.60;99.90;;;;;;5113073;28;20048;-73
2021/01/11 05:35:27;;;;;;;26.10;10.52;;;-0.60;99.90;;;;;;5111306;28;20067;-72
2021/01/11 05:37:54;;;;;;;27.38;11.40;;;-0.20;99.90;;;;;;5104212;28;20060;-72
2021/01/11 05:40:25;;;;;;;26.80;11.73;;;-0.60;99.90;;;;;;5113935;28;20075;-72
2021/01/11 05:42:53;;;;;;;25.92;11.52;;;-0.50;99.90;;;;;;5109897;28;20043;-72
2021/01/11 05:45:21;;;;;;;23.27;11.82;;;-0.60;99.90;;;;;;5105261;28;20044;-72
2021/01/11 05:48:08;;;;;;;26.05;11.98;;;-0.50;99.90;;;;;;5125454;27;20083;-71
2021/01/11 05:50:40;;;;;;;29.45;12.60;;;-0.40;99.90;;;;;;5111256;28;20086;-72
2021/01/11 05:53:27;;;;;;;26.15;11.38;;;-0.40;99.90;;;;;;5108383;28;20075;-72
2021/01/11 05:55:55;;;;;;;24.63;11.90;;;-0.40;99.90;;;;;;5111801;28;20039;-73
2021/01/11 05:58:23;;;;;;;25.48;11.05;;;-0.20;99.90;;;;;;5108863;28;20051;-73
2021/01/11 06:00:49;;;;;;;24.23;10.88;;;0.00;99.90;;;;;;5107608;28;20097;-73
2021/01/11 06:03:16;;;;;;;25.90;11.02;;;0.00;99.90;;;;;;5112886;28;20116;-73
2021/01/11 06:05:44;;;;;;;22.58;10.43;;;-0.20;99.90;;;;;;5105667;27;20126;-73
2021/01/11 06:08:12;;;;;;;22.58;9.50;;;0.00;99.90;;;;;;5112255;28;20072;-74
2021/01/11 06:10:39;;;;;;;20.30;10.20;;;0.20;99.80;;;;;;5106725;28;20048;-73
2021/01/11 06:13:10;;;;;;;28.27;13.38;;;0.30;99.90;;;;;;5107265;28;20048;-73
2021/01/11 06:15:38;;;;;;;21.45;9.90;;;0.00;99.90;;;;;;5111556;27;20075;-73
2021/01/11 06:18:12;;;;;;;23.83;12.05;;;0.30;99.90;;;;;;5109626;28;20100;-73
2021/01/11 06:20:43;;;;;;;22.23;10.02;;;-0.10;99.90;;;;;;5101479;28;20128;-73
2021/01/11 06:23:11;;;;;;;27.80;10.20;;;-0.20;99.90;;;;;;5105521;28;20071;-73
2021/01/11 06:25:39;;;;;;;21.38;8.93;;;-0.40;99.90;;;;;;5103131;28;20057;-73
2021/01/11 06:28:09;;;;;;;23.50;9.77;;;0.10;99.90;;;;;;5110626;28;20084;-73
2021/01/11 06:30:43;;;;;;;;;;;-0.20;99.90;;;;;;5112055;28;20113;-73
2021/01/11 06:33:12;;;;;;;20.95;8.98;;;0.20;99.90;;;;;;5106813;28;20290;-73
2021/01/11 06:35:47;;;;;;;22.50;10.15;;;0.10;99.90;;;;;;5112381;28;20055;-73
2021/01/11 06:38:30;;;;;;;19.48;8.63;;;0.20;99.90;;;;;;5110496;28;20051;-75
2021/01/11 06:41:02;;;;;;;17.67;9.00;;;0.30;99.90;;;;;;5104027;27;20135;-73
2021/01/11 06:43:44;;;;;;;21.00;9.73;;;-0.20;99.90;;;;;;5109506;27;20113;-72
2021/01/11 06:46:31;;;;;;;19.77;9.48;;;-0.20;99.90;;;;;;5109430;28;20071;-72
2021/01/11 06:49:00;;;;;;;28.02;12.55;;;-0.20;99.90;;;;;;5096129;28;20048;-73
2021/01/11 06:51:40;;;;;;;25.95;9.50;;;-0.40;99.90;;;;;;5108090;28;20064;-73
2021/01/11 06:54:08;;;;;;;22.38;10.20;;;-0.60;99.90;;;;;;5110600;28;20443;-73
2021/01/11 06:56:39;;;;;;;23.67;9.30;;;-0.60;99.90;;;;;;5105538;28;20052;-73
2021/01/11 06:59:12;;;;;;;22.92;9.48;;;-0.40;99.90;;;;;;5105857;28;20047;-73
2021/01/11 07:01:42;;;;;;;21.25;9.95;;;-0.40;99.90;;;;;;5109686;27;20130;-73
2021/01/11 07:04:10;;;;;;;29.67;10.73;;;-0.50;99.90;;;;;;5108772;28;20075;-73
2021/01/11 07:06:37;;;;;;;22.35;9.80;;;-0.30;99.90;;;;;;5104280;28;20040;-73
2021/01/11 07:09:18;;;;;;;26.60;10.90;;;-0.40;99.90;;;;;;5109884;28;20077;-73
2021/01/11 07:11:49;;;;;;;26.33;10.10;;;-0.60;99.90;;;;;;5105848;28;20044;-73
2021/01/11 07:14:23;;;;;;;22.83;10.20;;;-0.20;99.90;;;;;;5110261;28;20131;-72
2021/01/11 07:16:54;;;;;;;25.52;9.23;;;-0.40;99.90;;;;;;5107386;28;20480;-72
2021/01/11 07:19:36;;;;;;;19.50;8.07;;;-0.40;99.90;;;;;;5107031;28;20051;-73
2021/01/11 07:22:09;;;;;;;23.45;8.35;;;-0.20;99.90;;;;;;5110441;28;20402;-72
2021/01/11 07:24:42;;;;;;;20.13;9.10;;;-0.60;99.90;;;;;;5105363;28;20069;-72
2021/01/11 07:27:09;;;;;;;22.40;8.88;;;-0.70;99.90;;;;;;5108883;28;20075;-73
2021/01/11 07:29:35;;;;;;;22.52;9.73;;;-0.40;99.90;;;;;;5108253;28;20522;-73
2021/01/11 07:32:02;;;;;;;20.92;9.40;;;-0.20;99.90;;;;;;5107838;28;20547;-73
2021/01/11 07:34:28;;;;;;;20.75;8.68;;;-0.30;99.90;;;;;;5108147;28;20052;-72
2021/01/11 07:36:56;;;;;;;22.08;9.70;;;-0.40;99.90;;;;;;5112465;28;20444;-72
2021/01/11 07:39:24;;;;;;;20.63;8.82;;;-0.40;99.90;;;;;;5103791;28;20131;-73
2021/01/11 07:42:05;;;;;;;18.50;8.65;;;-0.60;99.90;;;;;;5104940;28;20132;-73
2021/01/11 07:44:39;;;;;;;19.55;8.63;;;-0.60;99.90;;;;;;5108166;28;20097;-72
2021/01/11 07:47:09;;;;;;;19.17;8.60;;;-0.30;99.90;;;;;;5104397;27;20044;-72
2021/01/11 07:49:42;;;;;;;20.95;9.35;;;-0.40;99.90;;;;;;5101275;28;20047;-73
2021/01/11 07:52:11;;;;;;;20.23;9.00;;;-0.40;99.90;;;;;;5109501;28;20115;-72
2021/01/11 07:54:41;;;;;;;23.80;8.82;;;-0.60;99.90;;;;;;5105903;28;20424;-72
2021/01/11 07:57:12;;;;;;;18.92;8.50;;;-0.30;99.90;;;;;;5103644;28;20094;-73
2021/01/11 07:59:39;;;;;;;21.17;8.80;;;-0.50;99.90;;;;;;5103694;28;20047;-72
2021/01/11 08:02:13;;;;;;;24.25;8.75;;;-0.70;99.90;;;;;;5102359;28;20071;-71
2021/01/11 08:04:42;;;;;;;23.27;9.13;;;-0.50;99.90;;;;;;5109254;28;20044;-72
2021/01/11 08:07:13;;;;;;;20.10;8.32;;;-0.70;99.90;;;;;;5105217;28;20055;-71
2021/01/11 08:09:40;;;;;;;20.98;8.75;;;-0.40;99.90;;;;;;5106457;28;20040;-72
2021/01/11 08:12:17;;;;;;;20.02;8.52;;;-0.40;99.90;;;;;;5109612;28;20043;-71
2021/01/11 08:14:44;;;;;;;19.50;8.48;;;-0.40;99.90;;;;;;5106920;28;20044;-71
2021/01/11 08:17:19;;;;;;;18.73;8.63;;;-0.80;99.90;;;;;;5098814;28;20043;-71
2021/01/11 08:19:52;;;;;;;19.42;8.55;;;-0.70;99.90;;;;;;5104625;28;20055;-72
2021/01/11 08:22:20;;;;;;;20.08;9.10;;;-0.40;99.90;;;;;;5108191;28;20047;-73
2021/01/11 08:24:50;;;;;;;20.65;8.98;;;-0.30;99.90;;;;;;5102423;28;20451;-72
2021/01/11 08:27:33;;;;;;;17.38;8.23;;;-0.70;99.90;;;;;;5108512;28;20440;-73
2021/01/11 08:30:11;;;;;;;17.77;7.93;;;-0.30;99.90;;;;;;5103432;28;20086;-72
2021/01/11 08:32:41;;;;;;;17.20;8.10;;;-0.20;99.90;;;;;;5100641;28;20398;-73
2021/01/11 08:35:15;;;;;;;;;;;0.10;99.90;;;;;;5109946;28;20134;-71
2021/01/11 08:37:42;;;;;;;18.40;8.40;;;-0.30;99.90;;;;;;5101940;28;19919;-72
2021/01/11 08:40:10;;;;;;;16.35;8.57;;;-0.10;99.90;;;;;;5105423;28;20138;-70
2021/01/11 08:42:39;;;;;;;19.48;8.25;;;-0.20;99.90;;;;;;5107090;28;20395;-73
2021/01/11 08:45:26;;;;;;;20.05;8.75;;;-0.10;99.90;;;;;;5103964;28;20059;-72
2021/01/11 08:48:05;;;;;;;18.98;8.10;;;-0.30;99.90;;;;;;5102826;28;20052;-72
2021/01/11 08:50:34;;;;;;;19.90;8.82;;;-0.20;99.90;;;;;;5107229;28;20512;-74
2021/01/11 08:53:20;;;;;;;19.13;9.00;;;-0.20;99.90;;;;;;5104968;28;20079;-73
2021/01/11 08:55:55;;;;;;;20.92;9.48;;;-0.20;99.90;;;;;;5104659;28;20098;-72
2021/01/11 08:58:21;;;;;;;23.77;9.65;;;-0.30;99.90;;;;;;5107963;28;20135;-72
2021/01/11 09:00:48;;;;;;;23.52;9.85;;;0.00;99.90;;;;;;5098747;28;20108;-71
2021/01/11 09:03:15;;;;;;;20.42;9.75;;;0.40;99.90;;;;;;5108567;28;20392;-73
2021/01/11 09:05:44;;;;;;;21.15;9.60;;;0.60;99.50;;;;;;5100352;28;20452;-73
2021/01/11 09:08:18;;;;;;;20.77;8.90;;;0.00;99.40;;;;;;5103908;28;20379;-74
2021/01/11 09:10:46;;;;;;;24.30;9.77;;;0.20;99.60;;;;;;5104468;28;20067;-73
2021/01/11 09:13:16;;;;;;;20.73;9.40;;;0.30;99.20;;;;;;5105874;28;20165;-73
2021/01/11 09:15:42;;;;;;;22.48;9.20;;;0.60;98.70;;;;;;5106620;28;20100;-73
2021/01/11 09:18:10;;;;;;;26.05;10.02;;;1.20;97.50;;;;;;5107801;28;20052;-73
2021/01/11 09:20:38;;;;;;;21.63;9.82;;;1.20;97.20;;;;;;5104270;28;20051;-73
2021/01/11 09:23:05;;;;;;;20.02;9.30;;;1.20;96.70;;;;;;5107248;28;20082;-72
2021/01/11 09:25:32;;;;;;;21.63;9.38;;;1.00;97.70;;;;;;5108674;28;20040;-72
2021/01/11 09:28:00;;;;;;;22.38;10.05;;;0.70;98.10;;;;;;5103265;28;20896;-72
2021/01/11 09:30:28;;;;;;;19.77;8.73;;;0.50;98.20;;;;;;5107771;28;20075;-73
2021/01/11 09:32:55;;;;;;;23.25;9.50;;;1.00;98.30;;;;;;5105657;28;20051;-72
2021/01/11 09:35:22;;;;;;;21.08;10.07;;;1.70;97.30;;;;;;5105161;28;20135;-72
2021/01/11 09:37:49;;;;;;;22.73;10.35;;;2.30;94.30;;;;;;5105863;28;20134;-72
2021/01/11 09:40:16;;;;;;;27.25;10.27;;;2.20;94.30;;;;;;5102135;28;20048;-73
2021/01/11 09:42:45;;;;;;;20.17;8.93;;;3.90;91.70;;;;;;5101782;28;20498;-72
2021/01/11 09:45:12;;;;;;;24.92;10.82;;;4.20;88.50;;;;;;5109065;28;20039;-72
2021/01/11 09:47:39;;;;;;;23.13;10.18;;;3.10;90.40;;;;;;5105024;28;20075;-71
2021/01/11 09:50:08;;;;;;;20.27;9.68;;;2.40;91.90;;;;;;5111451;28;20048;-75
2021/01/11 09:52:35;;;;;;;21.77;10.55;;;1.60;93.80;;;;;;5109150;28;20120;-72
2021/01/11 09:55:03;;;;;;;19.92;10.15;;;1.70;93.80;;;;;;5107585;28;20138;-74
2021/01/11 09:57:35;;;;;;;25.55;10.63;;;2.50;93.30;;;;;;5106419;27;20055;-72
2021/01/11 10:00:04;;;;;;;22.67;10.48;;;3.00;91.00;;;;;;5105235;28;20048;-72
2021/01/11 10:02:31;;;;;;;21.15;9.57;;;2.20;91.70;;;;;;5108696;28;20076;-72
2021/01/11 10:04:57;;;;;;;22.52;10.85;;;2.10;92.60;;;;;;5108004;28;20194;-73
2021/01/11 10:07:23;;;;;;;23.42;10.85;;;2.90;91.80;;;;;;5105561;27;20082;-72
2021/01/11 10:09:49;;;;;;;24.45;10.95;;;2.30;91.70;;;;;;5105524;28;20134;-73
2021/01/11 10:12:16;;;;;;;23.33;11.00;;;2.50;92.40;;;;;;5106071;28;20047;-73
2021/01/11 10:14:42;;;;;;;22.38;10.52;;;2.70;91.50;;;;;;5109106;27;20089;-74
2021/01/11 10:17:11;;;;;;;23.63;10.50;;;2.50;91.00;;;;;;5109716;28;20043;-72
2021/01/11 10:19:38;;;;;;;25.27;10.73;;;2.40;91.10;;;;;;5108807;27;20096;-72
2021/01/11 10:22:04;;;;;;;20.02;10.13;;;2.00;91.80;;;;;;5105422;28;20040;-72
2021/01/11 10:24:30;;;;;;;22.95;10.80;;;2.10;91.30;;;;;;5111889;27;20463;-73
2021/01/11 10:26:57;;;;;;;29.17;10.48;;;2.10;91.70;;;;;;5107843;27;20422;-71
2021/01/11 10:29:24;;;;;;;21.60;10.07;;;1.90;92.40;;;;;;5109908;28;20406;-70
2021/01/11 10:31:52;;;;;;;28.65;11.43;;;2.20;92.20;;;;;;5106143;28;20050;-71
2021/01/11 10:34:21;;;;;;;24.77;11.05;;;2.30;92.00;;;;;;5108724;28;21008;-73
2021/01/11 10:36:49;;;;;;;26.48;11.77;;;3.80;90.60;;;;;;5098785;27;20142;-72
2021/01/11 10:39:20;;;;;;;22.23;10.02;;;5.10;85.20;;;;;;5097621;28;20052;-72
2021/01/11 10:41:49;;;;;;;23.27;10.32;;;5.10;80.80;;;;;;5089122;28;20480;-72
2021/01/11 10:44:16;;;;;;;20.77;10.87;;;6.50;78.00;;;;;;5091171;28;20075;-72
2021/01/11 10:46:42;;;;;;;19.52;9.73;;;6.90;72.20;;;;;;5083324;28;20167;-72
2021/01/11 10:49:08;;;;;;;25.63;11.00;;;5.50;75.50;;;;;;5091130;28;20112;-72
2021/01/11 10:51:35;;;;;;;19.65;10.23;;;4.90;77.20;;;;;;5097539;28;20135;-73
2021/01/11 10:54:03;;;;;;;22.08;10.75;;;6.30;75.20;;;;;;5090216;28;20614;-72
2021/01/11 10:56:29;;;;;;;24.92;11.27;;;6.40;72.30;;;;;;5088446;28;20121;-73
2021/01/11 10:58:55;;;;;;;25.02;11.50;;;5.40;76.60;;;;;;5095558;27;20163;-73
2021/01/11 11:01:22;;;;;;;21.38;10.48;;;4.90;76.30;;;;;;5096133;28;20067;-73
2021/01/11 11:03:49;;;;;;;23.45;11.18;;;5.00;78.70;;;;;;5098393;28;20475;-73
2021/01/11 11:06:19;;;;;;;22.10;10.48;;;4.70;78.10;;;;;;5090842;28;20079;-73
2021/01/11 11:08:45;;;;;;;;;;;4.50;78.20;;;;;;5095058;28;20130;-71
2021/01/11 11:11:12;;;;;;;21.30;9.27;;;3.60;81.10;;;;;;5088199;28;19924;-74
2021/01/11 11:13:43;;;;;;;24.17;10.68;;;3.30;82.90;;;;;;5092001;28;20059;-72
2021/01/11 11:16:10;;;;;;;19.48;10.27;;;3.20;84.10;;;;;;5095272;28;20078;-74
2021/01/11 11:18:41;;;;;;;20.95;10.60;;;3.00;85.30;;;;;;5089011;28;20052;-74
2021/01/11 11:21:10;;;;;;;18.77;9.25;;;3.10;85.00;;;;;;5089800;28;20478;-74
2021/01/11 11:23:37;;;;;;;19.15;9.75;;;2.70;84.50;;;;;;5089872;27;20062;-73
2021/01/11 11:26:04;;;;;;;21.52;9.98;;;2.80;85.40;;;;;;5087630;28;20048;-73
2021/01/11 11:28:33;;;;;;;19.77;9.93;;;2.80;85.20;;;;;;5086349;28;20089;-73
2021/01/11 11:30:59;;;;;;;22.02;9.25;;;2.90;85.20;;;;;;5089133;28;20055;-73
2021/01/11 11:33:26;;;;;;;20.95;10.10;;;2.90;86.10;;;;;;5096593;28;20048;-74
2021/01/11 11:35:53;;;;;;;16.75;9.00;;;2.50;86.80;;;;;;5087267;27;20647;-74
2021/01/11 11:38:20;;;;;;;18.40;9.48;;;2.40;86.50;;;;;;5085681;28;20098;-73
2021/01/11 11:40:47;;;;;;;20.80;9.48;;;2.40;86.70;;;;;;5088167;28;20704;-73
2021/01/11 11:43:14;;;;;;;16.30;8.93;;;2.50;86.30;;;;;;5097150;28;20101;-74
2021/01/11 11:45:44;;;;;;;21.85;9.55;;;2.50;86.10;;;;;;5070611;28;20483;-75
2021/01/11 11:48:15;;;;;;;19.58;9.90;;;2.60;86.70;;;;;;5091384;28;20054;-73
2021/01/11 11:50:42;;;;;;;20.10;10.07;;;2.20;87.50;;;;;;5096308;28;20098;-75
2021/01/11 11:53:09;;;;;;;19.98;9.57;;;2.40;86.80;;;;;;5092081;28;20052;-74
2021/01/11 11:55:36;;;;;;;19.80;10.13;;;2.50;86.40;;;;;;5089234;27;20094;-74
2021/01/11 11:58:03;;;;;;;24.67;10.95;;;2.60;86.60;;;;;;5095327;28;20162;-74
2021/01/11 12:00:30;;;;;;;19.02;9.50;;;2.80;85.40;;;;;;5088383;28;20475;-72
2021/01/11 12:03:13;;;;;;;22.85;9.95;;;3.00;84.20;;;;;;5087877;28;20139;-74
2021/01/11 12:05:40;;;;;;;19.92;9.40;;;2.70;84.70;;;;;;5087785;28;20138;-73
2021/01/11 12:08:06;;;;;;;21.27;9.52;;;2.90;83.30;;;;;;5094840;28;20416;-73
2021/01/11 12:10:33;;;;;;;19.30;9.75;;;2.90;83.40;;;;;;5087300;28;20121;-73
2021/01/11 12:12:59;;;;;;;19.80;9.27;;;3.20;82.80;;;;;;5091225;28;20553;-73
2021/01/11 12:15:25;;;;;;;21.05;9.93;;;3.20;81.90;;;;;;5087333;28;20075;-73
2021/01/11 12:17:52;;;;;;;20.73;9.20;;;3.50;81.70;;;;;;5088809;27;20051;-73
2021/01/11 12:20:19;;;;;;;18.70;9.88;;;3.40;82.50;;;;;;5088614;28;20059;-74
2021/01/11 12:22:45;;;;;;;24.38;10.43;;;3.70;81.90;;;;;;5094844;28;20490;-75
2021/01/11 12:25:12;;;;;;;19.05;10.23;;;4.00;82.40;;;;;;5089599;28;20043;-75
2021/01/11 12:27:40;;;;;;;21.02;9.27;;;4.30;81.40;;;;;;5094333;28;20052;-73
2021/01/11 12:30:07;;;;;;;22.48;9.95;;;4.50;78.60;;;;;;5088774;28;20071;-74
2021/01/11 12:32:35;;;;;;;19.65;9.10;;;4.30;79.00;;;;;;5087608;28;20507;-75
2021/01/11 12:35:02;;;;;;;19.20;9.68;;;4.30;77.00;;;;;;5086776;28;20138;-74
2021/01/11 12:37:28;;;;;;;17.00;9.20;;;4.20;78.10;;;;;;5088258;28;20083;-75
2021/01/11 12:39:55;;;;;;;21.67;10.38;;;4.30;78.30;;;;;;5089370;28;20048;-74
2021/01/11 12:42:21;;;;;;;19.73;9.85;;;4.30;76.50;;;;;;5088965;28;20132;-75
2021/01/11 12:44:47;;;;;;;20.02;9.43;;;4.30;77.00;;;;;;5090544;28;20075;-74
2021/01/11 12:47:14;;;;;;;22.83;10.85;;;4.50;76.50;;;;;;5088122;28;20109;-73
2021/01/11 12:49:41;;;;;;;21.30;10.15;;;4.20;77.00;;;;;;5090172;28;20131;-73